Time;durP1;ratioP1;P1;durP2;ratioP2;P2;SDS_P1;SDS_P2;PMS_P1;PMS_P2;Temp;Humidity;BMP_temperature;BMP_pressure;BME280_temperature;BME280_humidity;BME280_pressure;Samples;Min_cycle;Max_cycle;Signal;HPM_P1;HPM_P2
2022/07/15 00:00:13;;;;;;;15.83;3.23;;;13.00;99.90;;;;;;5018206;28;20128;-80
2022/07/15 00:02:39;;;;;;;6.77;2.47;;;13.00;99.90;;;;;;5020298;28;20116;-80
2022/07/15 00:05:06;;;;;;;9.70;2.43;;;13.10;99.90;;;;;;5008200;28;20041;-80
2022/07/15 00:07:32;;;;;;;6.67;2.00;;;13.10;99.90;;;;;;5035568;28;20040;-80
2022/07/15 00:10:13;;;;;;;7.00;2.43;;;13.10;99.90;;;;;;5025652;28;20099;-80
2022/07/15 00:12:44;;;;;;;5.03;2.37;;;13.10;99.90;;;;;;5017420;28;20033;-80
2022/07/15 00:15:10;;;;;;;3.00;1.73;;;13.20;99.90;;;;;;5042063;28;20060;-80
2022/07/15 00:17:36;;;;;;;8.90;2.47;;;13.20;99.90;;;;;;5035834;28;20801;-80
2022/07/15 00:20:02;;;;;;;7.73;2.23;;;13.20;99.90;;;;;;5023047;28;20037;-80
2022/07/15 00:22:28;;;;;;;6.27;2.10;;;13.20;99.90;;;;;;5024441;28;20048;-80
2022/07/15 00:24:54;;;;;;;5.03;2.27;;;13.30;99.90;;;;;;5024310;28;20041;-80
2022/07/15 00:27:20;;;;;;;4.50;2.10;;;13.30;99.90;;;;;;5029467;28;20510;-80
2022/07/15 00:29:46;;;;;;;5.73;2.43;;;13.30;99.90;;;;;;5026110;28;20183;-80
2022/07/15 00:32:12;;;;;;;4.87;2.30;;;13.30;99.90;;;;;;5024955;28;20060;-80
2022/07/15 00:34:38;;;;;;;10.17;2.30;;;13.30;99.90;;;;;;5045180;28;20095;-80
2022/07/15 00:37:03;;;;;;;8.73;2.20;;;13.30;99.90;;;;;;5041803;28;20038;-79
2022/07/15 00:39:29;;;;;;;6.40;2.40;;;13.30;99.90;;;;;;5051512;28;20056;-80
2022/07/15 00:41:55;;;;;;;7.47;2.57;;;13.30;99.90;;;;;;5049790;28;20088;-80
2022/07/15 00:44:20;;;;;;;9.90;2.30;;;13.30;99.90;;;;;;5031905;28;20033;-81
2022/07/15 00:46:47;;;;;;;7.03;2.37;;;13.30;99.90;;;;;;5042135;28;20059;-80
2022/07/15 00:49:13;;;;;;;8.20;2.70;;;13.40;99.90;;;;;;5028300;28;20045;-80
2022/07/15 00:51:42;;;;;;;4.40;2.10;;;13.40;99.90;;;;;;5023140;28;20044;-80
2022/07/15 00:54:11;;;;;;;6.70;2.40;;;13.40;99.90;;;;;;5018995;28;20048;-80
2022/07/15 00:56:41;;;;;;;5.20;2.13;;;13.30;99.90;;;;;;5021152;28;20124;-80
2022/07/15 00:59:08;;;;;;;6.07;2.20;;;13.30;99.90;;;;;;5036810;28;20052;-80
2022/07/15 01:01:37;;;;;;;5.90;2.20;;;13.30;99.90;;;;;;5039797;28;20049;-80
2022/07/15 01:04:04;;;;;;;6.27;2.20;;;13.40;99.90;;;;;;5023247;28;20129;-80
2022/07/15 01:06:30;;;;;;;9.87;2.57;;;13.40;99.90;;;;;;5024033;28;20040;-80
2022/07/15 01:08:56;;;;;;;6.07;2.33;;;13.40;99.90;;;;;;5023835;28;20090;-81
2022/07/15 01:11:22;;;;;;;4.67;2.20;;;13.40;99.90;;;;;;5024040;28;20041;-80
2022/07/15 01:13:48;;;;;;;4.63;2.37;;;13.40;99.90;;;;;;5038105;28;20042;-81
2022/07/15 01:16:14;;;;;;;7.73;2.87;;;13.30;99.90;;;;;;5005139;28;20041;-81
2022/07/15 01:18:40;;;;;;;8.17;2.37;;;13.30;99.90;;;;;;5022579;28;20043;-81
2022/07/15 01:21:06;;;;;;;6.57;2.13;;;13.30;99.90;;;;;;5046661;28;20057;-80
2022/07/15 01:23:31;;;;;;;7.43;2.30;;;13.30;99.90;;;;;;5026974;28;20041;-80
2022/07/15 01:25:57;;;;;;;7.03;2.00;;;13.20;99.90;;;;;;5026830;28;20094;-80
2022/07/15 01:28:23;;;;;;;7.33;2.67;;;13.30;99.90;;;;;;5029238;28;20037;-80
2022/07/15 01:30:49;;;;;;;6.83;2.40;;;13.30;99.90;;;;;;5029441;28;20033;-80
2022/07/15 01:33:15;;;;;;;5.10;2.37;;;13.30;99.90;;;;;;5042973;28;20037;-80
2022/07/15 01:35:41;;;;;;;6.17;2.27;;;13.30;99.90;;;;;;5027643;28;20036;-80
2022/07/15 01:38:08;;;;;;;5.30;2.10;;;13.30;99.90;;;;;;5028572;28;20049;-80
2022/07/15 01:40:34;;;;;;;6.30;2.10;;;13.20;99.90;;;;;;5014112;28;20040;-80
2022/07/15 01:43:00;;;;;;;7.97;2.70;;;13.20;99.90;;;;;;5028668;28;20041;-80
2022/07/15 01:45:26;;;;;;;8.37;2.40;;;13.20;99.90;;;;;;5043694;28;20790;-80
2022/07/15 01:47:52;;;;;;;5.90;2.30;;;13.20;99.90;;;;;;5023832;28;20041;-80
2022/07/15 01:50:19;;;;;;;11.73;2.77;;;13.20;99.90;;;;;;5041989;28;20446;-82
2022/07/15 01:52:44;;;;;;;3.67;2.07;;;13.20;99.90;;;;;;5049641;28;20040;-80
2022/07/15 01:55:11;;;;;;;9.70;2.67;;;13.20;99.90;;;;;;5030653;28;20041;-80
2022/07/15 01:57:37;;;;;;;7.97;2.50;;;13.10;99.90;;;;;;5043386;28;20039;-80
2022/07/15 02:00:06;;;;;;;7.33;2.50;;;13.10;99.90;;;;;;5024800;28;20099;-80
2022/07/15 02:02:32;;;;;;;5.93;2.30;;;13.10;99.90;;;;;;5045989;28;20051;-80
2022/07/15 02:04:57;;;;;;;5.67;2.30;;;13.00;99.90;;;;;;5025992;28;20119;-80
2022/07/15 02:07:23;;;;;;;7.00;2.40;;;13.00;99.90;;;;;;5045660;28;20048;-80
2022/07/15 02:09:49;;;;;;;10.93;2.40;;;13.00;99.90;;;;;;5023689;28;20033;-80
2022/07/15 02:12:14;;;;;;;14.67;2.60;;;13.00;99.90;;;;;;5030217;28;20189;-80
2022/07/15 02:14:40;;;;;;;6.60;2.30;;;13.00;99.90;;;;;;5022989;28;20477;-80
2022/07/15 02:17:07;;;;;;;9.33;2.50;;;13.00;99.90;;;;;;5014306;28;20044;-80
2022/07/15 02:19:33;;;;;;;5.43;2.40;;;13.00;99.90;;;;;;5025180;28;20040;-80
2022/07/15 02:21:59;;;;;;;9.47;2.87;;;13.00;99.90;;;;;;5009684;28;20409;-81
2022/07/15 02:24:25;;;;;;;3.73;2.23;;;13.00;99.90;;;;;;5035503;28;20045;-80
2022/07/15 02:26:50;;;;;;;7.03;2.43;;;13.00;99.90;;;;;;5030518;28;20048;-81
2022/07/15 02:29:16;;;;;;;8.73;2.90;;;13.00;99.90;;;;;;4990536;28;20037;-81
2022/07/15 02:31:42;;;;;;;8.30;2.70;;;13.00;99.90;;;;;;5045294;28;20392;-80
2022/07/15 02:34:08;;;;;;;6.77;2.53;;;13.00;99.90;;;;;;5030224;28;20063;-80
2022/07/15 02:36:35;;;;;;;7.30;2.40;;;13.00;99.90;;;;;;5023477;28;20040;-80
2022/07/15 02:39:02;;;;;;;9.43;2.70;;;13.00;99.90;;;;;;5025270;28;20040;-80
2022/07/15 02:41:28;;;;;;;13.70;2.73;;;13.00;99.90;;;;;;5021328;28;20034;-80
2022/07/15 02:43:55;;;;;;;7.53;2.20;;;13.00;99.90;;;;;;5048102;28;20103;-80
2022/07/15 02:46:21;;;;;;;7.37;2.37;;;12.90;99.90;;;;;;5023776;28;20083;-80
2022/07/15 02:48:47;;;;;;;8.10;2.63;;;12.90;99.90;;;;;;5027304;28;20030;-80
2022/07/15 02:51:13;;;;;;;6.87;2.40;;;12.80;99.90;;;;;;5037721;28;20574;-80
2022/07/15 02:53:39;;;;;;;8.10;2.80;;;12.80;99.90;;;;;;5024848;28;20037;-80
2022/07/15 02:56:05;;;;;;;8.77;2.50;;;12.70;99.90;;;;;;5005146;28;20094;-80
2022/07/15 02:58:31;;;;;;;10.57;3.20;;;12.70;99.90;;;;;;5037347;28;20061;-80
2022/07/15 03:00:59;;;;;;;11.97;2.73;;;12.60;99.90;;;;;;5022145;28;20461;-81
2022/07/15 03:03:27;;;;;;;6.60;2.90;;;12.60;99.90;;;;;;5026294;28;20037;-80
2022/07/15 03:05:55;;;;;;;8.87;2.60;;;12.60;99.90;;;;;;5024503;28;20044;-80
2022/07/15 03:08:20;;;;;;;6.90;2.53;;;12.50;99.90;;;;;;5041025;28;20037;-80
2022/07/15 03:10:47;;;;;;;6.47;3.07;;;12.50;99.90;;;;;;5041690;28;20041;-80
2022/07/15 03:13:13;;;;;;;11.13;2.90;;;12.50;99.90;;;;;;5048423;28;20079;-80
2022/07/15 03:15:38;;;;;;;8.70;2.77;;;12.40;99.90;;;;;;5044370;28;20088;-80
2022/07/15 03:18:04;;;;;;;7.83;2.37;;;12.40;99.90;;;;;;5039528;28;20132;-80
2022/07/15 03:20:30;;;;;;;7.63;2.40;;;12.30;99.90;;;;;;5024986;28;20056;-80
2022/07/15 03:22:56;;;;;;;7.90;2.80;;;12.30;99.90;;;;;;5046118;28;20063;-80
2022/07/15 03:25:22;;;;;;;7.70;2.60;;;12.30;99.90;;;;;;5019395;28;20409;-80
2022/07/15 03:27:48;;;;;;;7.60;2.80;;;12.30;99.90;;;;;;5023539;28;20041;-80
2022/07/15 03:30:14;;;;;;;8.10;2.90;;;12.20;99.90;;;;;;5024612;28;20041;-80
2022/07/15 03:32:40;;;;;;;7.60;2.90;;;12.20;99.90;;;;;;5047518;28;20067;-80
2022/07/15 03:35:06;;;;;;;4.67;2.60;;;12.10;99.90;;;;;;5029989;28;20098;-80
2022/07/15 03:37:32;;;;;;;8.83;2.67;;;12.10;99.90;;;;;;5038274;28;20033;-80
2022/07/15 03:39:58;;;;;;;7.00;2.53;;;12.10;99.90;;;;;;5043560;28;20240;-80
2022/07/15 03:42:24;;;;;;;7.60;2.47;;;12.10;99.90;;;;;;5019545;28;20492;-80
2022/07/15 03:44:50;;;;;;;6.60;2.70;;;12.10;99.90;;;;;;5023096;28;20500;-80
2022/07/15 03:47:15;;;;;;;6.93;2.80;;;12.10;99.90;;;;;;5015067;28;20041;-80
2022/07/15 03:49:41;;;;;;;6.50;2.70;;;12.10;99.90;;;;;;5042776;28;20624;-80
2022/07/15 03:52:07;;;;;;;12.83;2.90;;;12.10;99.90;;;;;;5044336;28;20516;-80
2022/07/15 03:54:33;;;;;;;8.23;2.83;;;12.10;99.90;;;;;;5032170;28;20036;-80
2022/07/15 03:56:59;;;;;;;10.23;2.83;;;12.10;99.90;;;;;;5021431;28;20496;-80
2022/07/15 03:59:25;;;;;;;6.83;2.50;;;12.10;99.90;;;;;;5027091;28;20048;-80
2022/07/15 04:01:52;;;;;;;8.00;3.23;;;12.10;99.90;;;;;;5047990;28;20102;-80
2022/07/15 04:04:18;;;;;;;6.33;2.50;;;12.10;99.90;;;;;;5041966;28;20052;-80
2022/07/15 04:06:44;;;;;;;10.73;2.43;;;12.10;99.90;;;;;;5009907;28;20048;-80
2022/07/15 04:09:10;;;;;;;8.53;3.40;;;12.10;99.90;;;;;;5031606;28;20102;-80
2022/07/15 04:11:41;;;;;;;6.40;2.57;;;12.10;99.90;;;;;;5014818;28;20349;-80
2022/07/15 04:14:11;;;;;;;9.20;2.95;;;12.10;99.90;;;;;;5044753;28;20048;-80
2022/07/15 04:16:37;;;;;;;5.80;2.70;;;12.10;99.90;;;;;;5049967;28;20445;-80
2022/07/15 04:19:04;;;;;;;3.27;2.43;;;12.10;99.90;;;;;;5035542;28;20483;-80
2022/07/15 04:21:30;;;;;;;7.10;2.50;;;12.10;99.90;;;;;;5037740;28;20123;-80
2022/07/15 04:23:55;;;;;;;14.27;3.53;;;12.00;99.90;;;;;;5044560;28;20048;-80
2022/07/15 04:26:21;;;;;;;7.30;2.77;;;12.00;99.90;;;;;;5023954;28;20047;-80
2022/07/15 04:28:47;;;;;;;9.80;2.83;;;12.00;99.90;;;;;;5035091;28;20028;-80
2022/07/15 04:31:13;;;;;;;10.47;2.77;;;12.00;99.90;;;;;;5023746;28;20041;-80
2022/07/15 04:33:38;;;;;;;10.97;3.03;;;12.10;99.90;;;;;;5030407;28;20041;-80
2022/07/15 04:36:04;;;;;;;8.70;2.63;;;12.10;99.90;;;;;;5032408;28;20045;-80
2022/07/15 04:38:30;;;;;;;8.53;2.80;;;12.20;99.90;;;;;;5027975;28;20044;-80
2022/07/15 04:40:55;;;;;;;9.63;2.40;;;12.20;99.90;;;;;;5028604;28;20473;-80
2022/07/15 04:43:21;;;;;;;9.17;2.73;;;12.30;99.90;;;;;;5042707;28;20509;-80
2022/07/15 04:45:47;;;;;;;5.00;2.07;;;12.30;99.90;;;;;;5030785;28;20041;-80
2022/07/15 04:50:57;;;;;;;7.37;2.20;;;12.40;99.90;;;;;;5035934;28;20032;-80
2022/07/15 04:53:23;;;;;;;7.40;2.20;;;12.50;99.90;;;;;;5011601;28;20430;-80
2022/07/15 04:55:49;;;;;;;8.67;2.73;;;12.50;99.90;;;;;;5036848;28;20044;-80
2022/07/15 04:58:15;;;;;;;9.07;2.30;;;12.60;99.90;;;;;;5033596;28;20059;-80
2022/07/15 05:00:45;;;;;;;9.97;2.30;;;12.60;99.90;;;;;;5045092;28;20087;-80
2022/07/15 05:03:11;;;;;;;5.83;1.93;;;12.70;99.90;;;;;;5032808;28;20055;-80
2022/07/15 05:05:37;;;;;;;6.00;2.40;;;12.70;99.90;;;;;;5049558;28;20077;-80
2022/07/15 05:08:03;;;;;;;7.77;1.97;;;12.80;99.90;;;;;;5048331;28;20514;-80
2022/07/15 05:10:29;;;;;;;4.03;1.70;;;12.90;99.90;;;;;;5049920;28;20396;-80
2022/07/15 05:12:55;;;;;;;5.30;1.87;;;12.90;99.90;;;;;;5051296;28;20434;-80
2022/07/15 05:15:21;;;;;;;5.73;2.47;;;12.90;99.90;;;;;;5026166;28;20036;-80
2022/07/15 05:17:46;;;;;;;6.40;2.00;;;13.00;99.90;;;;;;5032960;28;20047;-80
2022/07/15 05:20:12;;;;;;;3.77;1.83;;;13.00;99.90;;;;;;5033139;28;20045;-80
2022/07/15 05:22:38;;;;;;;8.43;1.83;;;13.00;99.90;;;;;;5024582;28;20061;-80
2022/07/15 05:25:05;;;;;;;5.67;1.70;;;13.10;99.90;;;;;;5025149;28;20053;-80
2022/07/15 05:27:31;;;;;;;7.43;2.03;;;13.20;99.90;;;;;;5043506;28;20507;-80
2022/07/15 05:29:56;;;;;;;4.53;1.47;;;13.20;99.90;;;;;;5028202;28;20076;-80
2022/07/15 05:32:22;;;;;;;5.77;2.20;;;13.20;99.90;;;;;;5011291;28;20394;-79
2022/07/15 05:34:48;;;;;;;6.37;1.70;;;13.30;99.90;;;;;;5025378;28;20446;-81
2022/07/15 05:37:13;;;;;;;6.53;1.77;;;13.40;99.90;;;;;;5046126;28;20052;-80
2022/07/15 05:39:53;;;;;;;4.33;1.57;;;13.40;99.90;;;;;;5022691;28;20504;-80
2022/07/15 05:42:22;;;;;;;6.27;1.77;;;13.40;99.90;;;;;;5022049;28;20059;-80
2022/07/15 05:44:48;;;;;;;4.30;2.00;;;13.40;99.90;;;;;;5019885;28;20041;-80
2022/07/15 05:47:15;;;;;;;7.53;1.53;;;13.40;99.90;;;;;;5023979;28;20052;-80
2022/07/15 05:49:41;;;;;;;5.07;1.60;;;13.40;99.90;;;;;;5046203;28;20033;-80
2022/07/15 05:52:07;;;;;;;12.20;2.13;;;13.50;99.90;;;;;;5059976;28;20442;-80
2022/07/15 05:54:33;;;;;;;4.00;1.53;;;13.50;99.90;;;;;;5041062;28;20037;-80
2022/07/15 05:56:58;;;;;;;6.63;1.87;;;13.60;99.90;;;;;;5031201;28;20045;-80
2022/07/15 05:59:24;;;;;;;11.03;2.13;;;13.60;99.90;;;;;;5043695;28;20039;-80
2022/07/15 06:01:50;;;;;;;4.00;1.40;;;13.60;99.90;;;;;;5010978;28;20071;-80
2022/07/15 06:04:15;;;;;;;4.03;1.60;;;13.70;99.90;;;;;;5045848;28;20075;-81
2022/07/15 06:06:41;;;;;;;3.83;1.30;;;13.70;99.90;;;;;;5031698;28;20041;-80
2022/07/15 06:09:07;;;;;;;5.80;1.70;;;13.70;99.90;;;;;;5030210;28;20037;-80
2022/07/15 06:11:33;;;;;;;5.13;1.30;;;13.80;99.90;;;;;;5009791;28;20029;-81
2022/07/15 06:14:00;;;;;;;5.53;1.50;;;13.80;99.90;;;;;;5028596;28;20052;-80
2022/07/15 06:16:26;;;;;;;3.07;1.10;;;13.80;99.90;;;;;;5042464;28;20500;-81
2022/07/15 06:18:51;;;;;;;5.77;1.30;;;13.80;99.90;;;;;;5031609;28;20132;-80
2022/07/15 06:21:17;;;;;;;2.85;1.10;;;13.90;99.90;;;;;;5022560;28;20516;-80
2022/07/15 06:23:43;;;;;;;5.20;1.77;;;14.00;99.90;;;;;;5026743;28;20040;-81
2022/07/15 06:26:09;;;;;;;4.40;1.17;;;14.10;99.90;;;;;;5022934;28;20202;-80
2022/07/15 06:28:35;;;;;;;3.60;1.30;;;14.10;99.90;;;;;;5039406;28;20040;-80
2022/07/15 06:31:01;;;;;;;3.57;1.30;;;14.30;99.90;;;;;;5030374;28;20049;-81
2022/07/15 06:33:27;;;;;;;3.55;1.25;;;14.40;99.90;;;;;;5026681;28;20480;-80
2022/07/15 06:35:54;;;;;;;2.55;0.90;;;14.50;99.90;;;;;;5023652;28;20095;-81
2022/07/15 06:38:20;;;;;;;2.78;0.95;;;14.70;99.90;;;;;;5045035;28;20086;-81
2022/07/15 06:40:46;;;;;;;2.63;0.80;;;14.80;99.90;;;;;;5038716;28;20033;-81
2022/07/15 06:43:12;;;;;;;3.20;0.90;;;14.90;99.90;;;;;;5040359;28;20512;-81
2022/07/15 06:45:38;;;;;;;2.58;0.95;;;15.00;99.90;;;;;;5015064;28;20072;-81
2022/07/15 06:48:04;;;;;;;2.78;1.00;;;15.10;99.90;;;;;;5039108;28;20475;-82
2022/07/15 06:50:30;;;;;;;4.28;1.10;;;15.30;99.90;;;;;;5030082;28;20037;-81
2022/07/15 06:52:55;;;;;;;1.95;0.80;;;15.40;99.90;;;;;;5014076;28;20037;-81
2022/07/15 06:55:21;;;;;;;6.00;1.13;;;15.50;99.90;;;;;;5046138;28;20033;-81
2022/07/15 06:57:47;;;;;;;5.97;1.00;;;15.60;99.90;;;;;;5018831;28;20072;-80
2022/07/15 07:00:14;;;;;;;4.03;0.82;;;15.70;99.90;;;;;;5044505;28;20171;-81
2022/07/15 07:02:41;;;;;;;1.60;0.82;;;15.80;99.90;;;;;;5048546;28;20041;-80
2022/07/15 07:05:08;;;;;;;2.65;0.80;;;15.80;99.90;;;;;;5040257;28;20083;-80
2022/07/15 07:07:34;;;;;;;5.10;0.85;;;15.90;99.90;;;;;;5043686;28;20036;-80
2022/07/15 07:10:00;;;;;;;2.53;0.88;;;15.90;99.90;;;;;;5021142;28;20048;-84
2022/07/15 07:12:25;;;;;;;2.38;0.80;;;15.90;99.90;;;;;;5033216;28;20037;-85
2022/07/15 07:14:52;;;;;;;1.77;0.85;;;15.90;99.90;;;;;;5052672;28;20702;-84
2022/07/15 07:17:18;;;;;;;2.03;0.70;;;16.00;99.90;;;;;;5035763;28;20124;-84
2022/07/15 07:19:44;;;;;;;2.13;1.02;;;16.20;99.90;;;;;;5016276;28;20056;-84
2022/07/15 07:22:10;;;;;;;2.97;0.80;;;16.40;99.90;;;;;;5034188;28;20048;-84
2022/07/15 07:24:35;;;;;;;2.15;0.60;;;16.60;99.90;;;;;;5033101;28;20175;-84
2022/07/15 07:27:01;;;;;;;5.25;0.90;;;16.90;99.90;;;;;;5041496;28;20045;-85
2022/07/15 07:29:27;;;;;;;1.88;0.70;;;17.10;99.90;;;;;;5050487;28;20048;-85
2022/07/15 07:31:53;;;;;;;3.15;0.95;;;17.20;99.90;;;;;;5029220;28;20044;-84
2022/07/15 07:34:19;;;;;;;3.65;0.75;;;17.50;99.90;;;;;;5016648;28;20045;-84
2022/07/15 07:36:46;;;;;;;1.70;0.80;;;17.80;99.90;;;;;;5037142;28;20049;-84
2022/07/15 07:39:13;;;;;;;1.30;0.70;;;17.80;99.90;;;;;;5006861;28;20037;-84
2022/07/15 07:41:39;;;;;;;1.48;0.50;;;17.80;99.90;;;;;;5036719;28;20037;-85
2022/07/15 07:44:06;;;;;;;2.17;0.77;;;17.70;99.90;;;;;;5029560;28;20095;-85
2022/07/15 07:46:32;;;;;;;2.38;0.70;;;17.60;99.90;;;;;;5011477;28;20488;-84
2022/07/15 07:48:57;;;;;;;2.10;0.60;;;17.40;99.90;;;;;;5038996;28;20041;-84
2022/07/15 07:51:23;;;;;;;2.47;0.70;;;17.40;99.90;;;;;;5036670;28;20481;-83
2022/07/15 07:53:49;;;;;;;2.63;0.68;;;17.40;99.90;;;;;;5045318;28;20132;-84
2022/07/15 07:56:15;;;;;;;1.92;0.68;;;17.50;99.90;;;;;;5026736;28;20132;-84
2022/07/15 07:58:41;;;;;;;2.22;0.73;;;17.80;99.90;;;;;;5030671;28;20041;-85
2022/07/15 08:01:07;;;;;;;1.38;0.60;;;18.10;99.90;;;;;;5026881;28;20045;-84
2022/07/15 08:03:33;;;;;;;2.25;1.15;;;18.50;99.90;;;;;;5030873;28;20135;-85
2022/07/15 08:05:59;;;;;;;4.32;0.63;;;18.50;99.90;;;;;;5026734;28;20069;-86
2022/07/15 08:08:25;;;;;;;3.63;0.80;;;18.30;99.90;;;;;;5009905;28;20052;-83
2022/07/15 08:10:54;;;;;;;2.90;0.60;;;17.90;99.90;;;;;;5025924;28;20460;-84
2022/07/15 08:13:22;;;;;;;1.77;0.63;;;17.60;99.90;;;;;;5031171;28;20049;-84
2022/07/15 08:15:48;;;;;;;1.88;0.93;;;17.70;99.90;;;;;;5049846;28;20044;-84
2022/07/15 08:18:14;;;;;;;1.02;0.40;;;18.00;99.90;;;;;;5048187;28;20071;-85
2022/07/15 08:20:40;;;;;;;1.15;0.60;;;18.30;99.90;;;;;;5019656;28;20115;-85
2022/07/15 08:23:06;;;;;;;1.58;0.52;;;18.50;99.90;;;;;;5025467;28;20127;-85
2022/07/15 08:25:36;;;;;;;2.47;0.77;;;18.40;99.90;;;;;;5048529;28;20119;-85
2022/07/15 08:28:03;;;;;;;2.20;0.68;;;18.30;99.90;;;;;;5052587;28;20115;-84
2022/07/15 08:30:30;;;;;;;1.38;0.52;;;18.10;99.90;;;;;;5059149;28;20048;-83
2022/07/15 08:32:56;;;;;;;1.55;0.60;;;18.00;99.90;;;;;;5042323;28;20033;-83
2022/07/15 08:35:23;;;;;;;1.38;0.50;;;17.80;99.90;;;;;;5045765;28;20043;-83
2022/07/15 08:37:49;;;;;;;2.50;0.60;;;17.60;99.90;;;;;;5031384;28;20818;-84
2022/07/15 08:40:15;;;;;;;1.70;0.57;;;17.50;99.90;;;;;;5042909;28;20041;-84
2022/07/15 08:42:45;;;;;;;2.35;0.60;;;17.40;99.90;;;;;;5037118;28;20032;-83
2022/07/15 08:45:13;;;;;;;0.98;0.50;;;17.40;99.90;;;;;;5017081;28;20059;-83
2022/07/15 08:47:42;;;;;;;2.38;0.70;;;17.40;99.90;;;;;;5051029;28;20036;-83
2022/07/15 08:50:15;;;;;;;2.72;0.63;;;17.30;99.90;;;;;;5026359;28;20072;-84
2022/07/15 08:52:43;;;;;;;1.88;0.70;;;17.40;99.90;;;;;;5019137;28;20037;-83
2022/07/15 08:55:09;;;;;;;1.80;0.40;;;17.40;99.90;;;;;;5049308;28;20048;-83
2022/07/15 08:57:35;;;;;;;1.20;0.40;;;17.50;99.90;;;;;;5046877;28;20046;-82
2022/07/15 09:00:03;;;;;;;1.55;0.50;;;18.00;99.90;;;;;;5054393;28;20379;-83
2022/07/15 09:02:29;;;;;;;2.45;0.63;;;18.50;99.90;;;;;;5037154;28;20470;-85
2022/07/15 09:05:26;;;;;;;1.77;0.50;;;18.60;99.90;;;;;;5021636;28;20093;-83
2022/07/15 09:08:15;;;;;;;0.88;0.52;;;18.60;99.90;;;;;;5017697;28;20106;-83
2022/07/15 09:10:45;;;;;;;1.15;0.50;;;18.20;99.90;;;;;;5041436;28;20047;-84
2022/07/15 09:13:25;;;;;;;1.15;0.40;;;18.00;99.90;;;;;;5018327;28;20037;-85
2022/07/15 09:15:52;;;;;;;3.10;0.50;;;17.80;99.90;;;;;;5027361;28;20033;-83
2022/07/15 09:18:20;;;;;;;0.80;0.50;;;17.60;99.90;;;;;;5026681;28;20038;-83
2022/07/15 09:20:46;;;;;;;2.00;0.50;;;17.40;99.90;;;;;;5037842;28;20090;-83
2022/07/15 09:23:20;;;;;;;0.82;0.45;;;17.20;99.90;;;;;;5037825;28;20040;-84
2022/07/15 09:25:49;;;;;;;1.85;0.60;;;17.10;99.90;;;;;;5038005;28;20151;-83
2022/07/15 09:28:15;;;;;;;2.30;0.60;;;17.00;99.90;;;;;;5023318;28;20067;-83
2022/07/15 09:33:39;;;;;;;2.58;0.90;;;16.80;99.90;;;;;;5049310;28;20094;-83
2022/07/15 09:36:23;;;;;;;1.05;0.50;;;16.80;99.90;;;;;;5033166;28;20045;-83
2022/07/15 09:38:57;;;;;;;2.40;0.50;;;16.90;99.90;;;;;;5028604;28;20048;-82
2022/07/15 09:41:33;;;;;;;2.13;0.68;;;17.00;99.90;;;;;;5043116;28;20045;-83
2022/07/15 09:44:02;;;;;;;1.48;0.50;;;17.30;99.90;;;;;;5007284;28;20071;-83
2022/07/15 09:46:49;;;;;;;3.70;0.85;;;17.50;99.90;;;;;;5057014;28;20129;-83
2022/07/15 09:49:32;;;;;;;3.00;0.60;;;17.60;99.90;;;;;;5044730;28;20492;-84
2022/07/15 09:52:01;;;;;;;2.15;0.43;;;17.60;99.90;;;;;;5034621;28;20673;-83
2022/07/15 09:54:32;;;;;;;2.33;0.60;;;17.60;99.90;;;;;;5040441;28;20041;-84
2022/07/15 09:57:03;;;;;;;2.22;0.50;;;17.60;99.90;;;;;;5038098;28;20052;-84
2022/07/15 09:59:29;;;;;;;2.15;0.50;;;17.50;99.90;;;;;;5021484;28;20399;-85
2022/07/15 10:01:56;;;;;;;1.85;0.73;;;17.30;99.90;;;;;;5021945;28;20044;-84
2022/07/15 10:04:24;;;;;;;2.80;0.60;;;17.20;99.90;;;;;;5040725;28;20044;-84
2022/07/15 10:06:53;;;;;;;0.80;0.70;;;17.10;99.90;;;;;;5038421;28;20049;-85
2022/07/15 10:09:22;;;;;;;1.30;0.63;;;17.10;99.90;;;;;;5020693;28;20045;-84
2022/07/15 10:11:52;;;;;;;2.65;0.50;;;17.20;99.90;;;;;;5025524;28;20032;-84
2022/07/15 10:14:38;;;;;;;1.25;0.50;;;17.20;99.90;;;;;;5029700;28;20037;-84
2022/07/15 10:17:10;;;;;;;0.90;0.50;;;17.30;99.90;;;;;;5010182;28;20052;-84
2022/07/15 10:20:09;;;;;;;3.53;0.60;;;17.40;99.90;;;;;;5020968;28;20041;-84
2022/07/15 10:22:59;;;;;;;2.13;0.50;;;17.60;99.90;;;;;;5036843;28;20096;-84
2022/07/15 10:25:56;;;;;;;1.20;0.40;;;17.80;99.90;;;;;;5036792;28;20505;-85
2022/07/15 10:29:05;;;;;;;0.95;0.40;;;18.00;99.90;;;;;;5020636;28;20044;-86
2022/07/15 10:31:33;;;;;;;1.23;0.60;;;18.50;99.90;;;;;;5044700;28;20094;-84
2022/07/15 10:34:02;;;;;;;1.23;0.50;;;19.10;99.90;;;;;;5040348;28;20106;-84
2022/07/15 10:36:42;;;;;;;1.48;0.57;;;19.60;99.90;;;;;;5035195;28;20376;-83
2022/07/15 10:39:08;;;;;;;0.57;0.50;;;19.80;99.90;;;;;;5023865;28;20084;-85
2022/07/15 10:41:52;;;;;;;1.33;0.40;;;19.90;99.90;;;;;;5040330;28;20091;-85
2022/07/15 10:44:19;;;;;;;2.47;0.52;;;20.10;99.90;;;;;;5039667;28;20044;-84
2022/07/15 10:46:45;;;;;;;1.95;0.55;;;20.40;99.90;;;;;;5039955;28;20068;-85
2022/07/15 10:49:11;;;;;;;0.68;0.50;;;20.50;99.90;;;;;;5039414;28;20068;-85
2022/07/15 10:51:36;;;;;;;0.60;0.40;;;20.60;99.70;;;;;;5056481;28;20043;-84
2022/07/15 10:54:31;;;;;;;0.57;0.50;;;20.70;98.60;;;;;;5039823;28;20039;-84
2022/07/15 10:56:57;;;;;;;0.65;0.45;;;20.80;93.90;;;;;;5043542;28;20117;-84
2022/07/15 10:59:24;;;;;;;1.40;0.45;;;20.80;95.30;;;;;;5023669;28;20036;-84
2022/07/15 11:02:12;;;;;;;1.30;0.55;;;21.10;94.90;;;;;;5056550;28;20040;-84
2022/07/15 11:04:38;;;;;;;1.58;0.50;;;21.30;91.40;;;;;;5056867;28;20044;-83
2022/07/15 11:07:07;;;;;;;1.17;0.45;;;21.30;91.40;;;;;;5032649;28;20037;-83
2022/07/15 11:10:01;;;;;;;1.70;0.40;;;21.50;91.20;;;;;;5045881;28;20109;-85
2022/07/15 11:12:30;;;;;;;2.88;0.50;;;21.60;84.60;;;;;;5021998;28;20070;-83
2022/07/15 11:15:06;;;;;;;1.88;0.50;;;21.60;90.20;;;;;;5039600;28;20052;-84
2022/07/15 11:17:32;;;;;;;2.65;0.60;;;21.80;88.30;;;;;;5052826;28;20064;-83
2022/07/15 11:20:03;;;;;;;0.65;0.60;;;21.90;88.20;;;;;;5051304;28;20079;-84
2022/07/15 11:22:29;;;;;;;1.60;0.50;;;22.00;86.20;;;;;;5039436;28;20131;-83
2022/07/15 11:24:56;;;;;;;3.15;0.50;;;22.00;89.90;;;;;;5022985;28;20703;-85
2022/07/15 11:27:23;;;;;;;3.15;0.43;;;22.10;86.20;;;;;;5022931;28;20040;-83
2022/07/15 11:29:58;;;;;;;1.20;0.50;;;21.90;84.30;;;;;;5048046;28;20047;-84
2022/07/15 11:32:25;;;;;;;3.33;0.63;;;21.40;82.00;;;;;;5019688;28;20415;-83
2022/07/15 11:34:54;;;;;;;2.47;0.57;;;21.00;84.70;;;;;;5018873;28;20029;-84
2022/07/15 11:37:32;;;;;;;2.15;0.68;;;20.60;86.00;;;;;;5019731;28;20037;-83
2022/07/15 11:40:09;;;;;;;1.15;0.52;;;20.40;86.10;;;;;;5035900;28;20055;-84
2022/07/15 11:45:37;;;;;;;1.63;0.68;;;19.80;89.60;;;;;;5036055;28;20136;-84
2022/07/15 11:48:06;;;;;;;1.67;0.70;;;19.50;88.30;;;;;;5036508;28;20366;-84
2022/07/15 11:50:36;;;;;;;1.20;0.60;;;19.40;90.00;;;;;;5035965;28;20047;-83
2022/07/15 11:53:14;;;;;;;1.13;0.45;;;19.30;90.90;;;;;;5003363;28;20048;-83
2022/07/15 11:55:59;;;;;;;1.55;0.63;;;19.30;90.60;;;;;;5030353;28;20071;-83
2022/07/15 11:58:46;;;;;;;1.88;0.73;;;19.40;92.20;;;;;;5016656;28;20104;-85
2022/07/15 12:01:15;;;;;;;2.78;0.82;;;19.50;92.00;;;;;;5007151;28;20051;-83
2022/07/15 12:03:46;;;;;;;1.48;0.70;;;19.80;91.30;;;;;;5018040;28;20048;-83
2022/07/15 12:06:23;;;;;;;1.95;0.60;;;20.10;91.30;;;;;;5022961;28;20075;-83
2022/07/15 12:08:52;;;;;;;1.60;0.60;;;20.10;89.30;;;;;;5039276;28;20127;-83
2022/07/15 12:11:30;;;;;;;0.93;0.60;;;20.10;90.30;;;;;;5022189;28;20519;-85
2022/07/15 12:14:26;;;;;;;1.60;0.60;;;20.00;87.80;;;;;;5041925;28;20037;-83
2022/07/15 12:16:52;;;;;;;0.93;0.60;;;19.90;90.00;;;;;;5032957;28;20522;-85
2022/07/15 12:19:21;;;;;;;1.35;0.50;;;19.90;90.30;;;;;;5009732;28;20051;-83
2022/07/15 12:21:50;;;;;;;3.53;0.73;;;19.80;90.00;;;;;;5038151;28;20060;-84
2022/07/15 12:24:35;;;;;;;2.15;0.50;;;19.80;89.50;;;;;;5044783;28;20099;-84
2022/07/15 12:27:01;;;;;;;3.20;0.65;;;19.70;90.40;;;;;;5021684;28;20044;-83
2022/07/15 12:29:30;;;;;;;2.20;0.40;;;19.70;90.10;;;;;;5038220;28;20044;-84
2022/07/15 12:32:02;;;;;;;1.75;0.50;;;20.20;90.60;;;;;;5038131;28;20040;-83
2022/07/15 12:34:46;;;;;;;1.98;0.60;;;20.70;88.80;;;;;;5055237;28;20040;-82
2022/07/15 12:37:13;;;;;;;0.63;0.40;;;21.30;85.70;;;;;;5018495;28;20908;-83
2022/07/15 12:39:58;;;;;;;0.60;0.40;;;21.50;82.90;;;;;;5034800;28;20592;-82
2022/07/15 12:42:26;;;;;;;0.73;0.50;;;21.70;78.50;;;;;;5029721;28;20048;-82
2022/07/15 12:45:13;;;;;;;1.23;0.40;;;21.60;80.10;;;;;;5023896;28;20512;-83
2022/07/15 12:48:05;;;;;;;1.27;0.50;;;21.50;76.90;;;;;;5038170;28;20051;-83
2022/07/15 12:50:34;;;;;;;1.38;0.85;;;21.60;78.00;;;;;;5047673;28;20032;-85
2022/07/15 12:53:01;;;;;;;0.60;0.60;;;21.60;80.60;;;;;;5038342;28;20033;-84
2022/07/15 12:55:33;;;;;;;2.15;0.60;;;21.40;80.10;;;;;;5035450;28;20043;-83
2022/07/15 12:58:07;;;;;;;2.47;0.70;;;21.20;82.00;;;;;;5018708;28;20041;-84
2022/07/15 13:00:34;;;;;;;1.30;0.50;;;20.90;80.50;;;;;;5018537;28;20044;-85